Time;durP1;ratioP1;P1;durP2;ratioP2;P2;SDS_P1;SDS_P2;PMS_P1;PMS_P2;Temp;Humidity;BMP_temperature;BMP_pressure;BME280_temperature;BME280_humidity;BME280_pressure;Samples;Min_cycle;Max_cycle;Signal;HPM_P1;HPM_P2
2023/06/26 00:00:23;;;;;;;4.00;3.70;;;22.40;99.90;;;;;;5095511;28;20197;-57
2023/06/26 00:02:54;;;;;;;4.43;3.37;;;22.30;99.90;;;;;;5081894;28;20189;-57
2023/06/26 00:05:22;;;;;;;5.53;3.80;;;22.20;99.90;;;;;;5095588;28;20264;-57
2023/06/26 00:07:50;;;;;;;4.07;3.70;;;22.10;99.90;;;;;;5091889;28;20243;-56
2023/06/26 00:10:19;;;;;;;4.57;3.73;;;22.20;99.90;;;;;;5085617;28;20647;-57
2023/06/26 00:12:47;;;;;;;5.47;3.57;;;22.10;99.90;;;;;;5093202;28;20307;-57
2023/06/26 00:15:15;;;;;;;4.80;3.40;;;22.00;99.90;;;;;;5096147;28;20191;-56
2023/06/26 00:17:44;;;;;;;5.80;3.70;;;21.90;99.90;;;;;;5095567;28;20187;-56
2023/06/26 00:20:17;;;;;;;4.20;3.20;;;21.90;99.90;;;;;;5095184;28;20227;-56
2023/06/26 00:22:50;;;;;;;5.80;3.47;;;21.80;99.90;;;;;;5094339;28;20225;-57
2023/06/26 00:25:18;;;;;;;11.57;3.67;;;21.70;99.90;;;;;;5094930;28;20215;-58
2023/06/26 00:27:46;;;;;;;5.67;3.73;;;21.70;99.90;;;;;;5090898;28;20865;-58
2023/06/26 00:30:17;;;;;;;3.70;3.50;;;21.60;99.90;;;;;;5093993;28;20207;-57
2023/06/26 00:32:46;;;;;;;5.50;3.63;;;21.60;99.90;;;;;;5094297;28;20195;-58
2023/06/26 00:35:15;;;;;;;4.10;3.53;;;21.50;99.90;;;;;;5090422;28;20239;-56
2023/06/26 00:37:44;;;;;;;4.30;3.60;;;21.40;99.90;;;;;;5102531;28;20223;-58
2023/06/26 00:40:13;;;;;;;6.57;4.30;;;21.40;99.90;;;;;;5094858;28;20677;-57
2023/06/26 00:42:41;;;;;;;4.07;3.77;;;21.40;99.90;;;;;;5085130;28;20559;-58
2023/06/26 00:45:10;;;;;;;3.87;3.40;;;21.30;99.90;;;;;;5078139;28;20211;-57
2023/06/26 00:47:38;;;;;;;6.57;3.60;;;21.20;99.90;;;;;;5076586;28;20208;-57
2023/06/26 00:50:08;;;;;;;3.37;3.07;;;21.20;99.90;;;;;;5092485;28;20215;-56
2023/06/26 00:52:38;;;;;;;4.00;3.53;;;21.10;99.90;;;;;;5094420;28;20225;-57
2023/06/26 00:55:07;;;;;;;5.17;3.60;;;21.10;99.90;;;;;;5093514;28;20666;-57
2023/06/26 00:57:35;;;;;;;4.63;3.60;;;21.10;99.90;;;;;;5093066;28;20310;-56
2023/06/26 01:00:04;;;;;;;6.73;3.67;;;21.00;99.90;;;;;;5090754;28;20188;-55
2023/06/26 01:02:33;;;;;;;4.50;3.60;;;21.00;99.90;;;;;;5093316;28;20219;-57
2023/06/26 01:05:06;;;;;;;7.87;3.73;;;21.00;99.90;;;;;;5093336;28;20211;-57
2023/06/26 01:07:37;;;;;;;5.77;3.40;;;21.00;99.90;;;;;;5075009;28;20235;-57
2023/06/26 01:10:07;;;;;;;5.73;3.40;;;20.80;99.90;;;;;;5093660;28;20753;-56
2023/06/26 01:12:35;;;;;;;6.80;3.70;;;20.80;99.90;;;;;;5094405;28;20218;-56
2023/06/26 01:15:04;;;;;;;3.93;3.30;;;20.80;99.90;;;;;;5093789;28;20206;-58
2023/06/26 01:17:33;;;;;;;5.43;3.37;;;20.80;99.90;;;;;;5089322;28;20223;-56
2023/06/26 01:20:02;;;;;;;4.10;3.50;;;20.80;99.90;;;;;;5088386;28;20231;-58
2023/06/26 01:22:44;;;;;;;5.27;3.30;;;20.80;99.90;;;;;;5090342;28;20250;-57
2023/06/26 01:25:22;;;;;;;6.30;3.67;;;20.70;99.90;;;;;;5083884;28;20714;-56
2023/06/26 01:27:55;;;;;;;5.33;3.10;;;20.70;99.90;;;;;;5089166;28;20584;-57
2023/06/26 01:30:24;;;;;;;7.73;3.63;;;20.70;99.90;;;;;;5089800;28;20214;-57
2023/06/26 01:32:52;;;;;;;8.03;3.77;;;20.60;99.90;;;;;;5092049;28;20188;-57
2023/06/26 01:35:21;;;;;;;6.33;3.47;;;20.60;99.90;;;;;;5092414;28;20227;-58
2023/06/26 01:37:49;;;;;;;4.90;3.60;;;20.60;99.90;;;;;;5092586;28;20234;-55
2023/06/26 01:40:18;;;;;;;7.03;3.60;;;20.60;99.90;;;;;;5091101;28;20212;-54
2023/06/26 01:42:46;;;;;;;4.13;3.50;;;20.50;99.90;;;;;;5092883;28;20222;-57
2023/06/26 01:45:24;;;;;;;7.07;3.87;;;20.40;99.90;;;;;;5090847;28;20219;-57
2023/06/26 01:47:53;;;;;;;6.63;4.03;;;20.40;99.90;;;;;;5090256;28;20198;-57
2023/06/26 01:50:25;;;;;;;4.93;3.57;;;20.40;99.90;;;;;;5088687;28;20262;-56
2023/06/26 01:53:00;;;;;;;6.57;3.73;;;20.30;99.90;;;;;;5088887;28;20234;-57
2023/06/26 01:55:35;;;;;;;6.77;3.67;;;20.30;99.90;;;;;;5090860;28;20219;-57
2023/06/26 01:58:04;;;;;;;9.00;3.90;;;20.30;99.90;;;;;;5090159;28;20222;-56
2023/06/26 02:00:34;;;;;;;10.37;3.90;;;20.30;99.90;;;;;;5091025;28;20305;-57
2023/06/26 02:03:04;;;;;;;9.97;3.93;;;20.30;99.90;;;;;;5093583;28;20245;-57
2023/06/26 02:05:33;;;;;;;5.33;3.87;;;20.20;99.90;;;;;;5085653;28;20296;-57
2023/06/26 02:08:02;;;;;;;5.63;3.43;;;20.20;99.90;;;;;;5090638;28;20219;-57
2023/06/26 02:10:31;;;;;;;8.40;4.20;;;20.10;99.90;;;;;;5091578;28;20226;-57
2023/06/26 02:12:59;;;;;;;5.43;4.40;;;20.10;99.90;;;;;;5092567;28;20219;-56
2023/06/26 02:15:28;;;;;;;8.03;3.97;;;20.00;99.90;;;;;;5090828;28;20199;-57
2023/06/26 02:17:57;;;;;;;6.50;4.33;;;20.10;99.90;;;;;;5093055;28;20534;-57
2023/06/26 02:20:25;;;;;;;7.57;4.00;;;20.10;99.90;;;;;;5091112;28;20214;-57
2023/06/26 02:22:54;;;;;;;10.40;4.47;;;20.00;99.90;;;;;;5089833;28;20235;-56
2023/06/26 02:25:22;;;;;;;12.80;4.83;;;20.00;99.90;;;;;;5100237;28;20229;-57
2023/06/26 02:27:51;;;;;;;9.13;4.73;;;19.90;99.90;;;;;;5074315;28;20229;-57
2023/06/26 02:30:19;;;;;;;10.40;4.50;;;19.80;99.90;;;;;;5092391;28;20199;-56
2023/06/26 02:32:47;;;;;;;10.20;4.77;;;19.70;99.90;;;;;;5090355;28;20195;-57
2023/06/26 02:35:17;;;;;;;12.07;4.90;;;19.70;99.90;;;;;;5079419;28;20215;-56
2023/06/26 02:37:45;;;;;;;9.00;5.00;;;19.60;99.90;;;;;;5086657;28;20225;-57
2023/06/26 02:40:13;;;;;;;9.63;5.03;;;19.50;99.90;;;;;;5074617;28;20215;-57
2023/06/26 02:42:42;;;;;;;11.57;5.30;;;19.50;99.90;;;;;;5092475;28;20241;-56
2023/06/26 02:45:10;;;;;;;14.60;5.30;;;19.40;99.90;;;;;;5092490;28;20565;-58
2023/06/26 02:47:39;;;;;;;11.13;4.77;;;19.40;99.90;;;;;;5092273;28;20238;-57
2023/06/26 02:50:09;;;;;;;9.57;5.10;;;19.40;99.90;;;;;;5090289;28;20618;-57
2023/06/26 02:52:39;;;;;;;10.07;4.57;;;19.30;99.90;;;;;;5089743;28;20266;-57
2023/06/26 02:55:07;;;;;;;10.03;4.70;;;19.20;99.90;;;;;;5092485;28;20673;-57
2023/06/26 02:57:36;;;;;;;12.17;5.27;;;19.10;99.90;;;;;;5086763;28;20222;-58
2023/06/26 03:00:08;;;;;;;11.57;5.13;;;19.10;99.90;;;;;;5083881;28;20215;-57
2023/06/26 03:02:36;;;;;;;11.70;5.27;;;19.10;99.90;;;;;;5091514;28;20219;-58
2023/06/26 03:05:05;;;;;;;11.17;4.93;;;19.10;99.90;;;;;;5090491;28;20488;-55
2023/06/26 03:07:33;;;;;;;15.07;5.23;;;19.00;99.90;;;;;;5070761;28;20219;-57
2023/06/26 03:10:03;;;;;;;10.47;5.00;;;18.90;99.90;;;;;;5091774;28;20216;-57
2023/06/26 03:12:31;;;;;;;16.53;5.20;;;19.00;99.90;;;;;;5091784;28;20614;-57
2023/06/26 03:15:00;;;;;;;14.43;5.40;;;18.90;99.90;;;;;;5090185;28;20199;-57
2023/06/26 03:17:28;;;;;;;8.73;4.80;;;18.80;99.90;;;;;;5087804;28;20673;-56
2023/06/26 03:19:56;;;;;;;10.60;4.93;;;18.80;99.90;;;;;;5090256;28;20220;-57
2023/06/26 03:22:24;;;;;;;10.90;5.30;;;18.70;99.90;;;;;;5091891;28;20240;-57
2023/06/26 03:24:53;;;;;;;13.50;5.23;;;18.60;99.90;;;;;;5089746;28;20219;-57
2023/06/26 03:27:23;;;;;;;13.17;5.37;;;18.60;99.90;;;;;;5071758;28;20196;-57
2023/06/26 03:29:51;;;;;;;13.77;5.57;;;18.60;99.90;;;;;;5070301;28;20199;-56
2023/06/26 03:32:19;;;;;;;16.40;5.30;;;18.60;99.90;;;;;;5090672;28;20309;-58
2023/06/26 03:34:47;;;;;;;15.03;5.10;;;18.60;99.90;;;;;;5092133;28;20243;-58
2023/06/26 03:37:16;;;;;;;12.50;5.13;;;18.50;99.90;;;;;;5098816;28;20215;-57
2023/06/26 03:39:44;;;;;;;12.57;5.13;;;18.50;99.90;;;;;;5084006;28;20226;-56
2023/06/26 03:42:12;;;;;;;19.87;5.40;;;18.50;99.90;;;;;;5091324;28;20282;-57
2023/06/26 03:44:42;;;;;;;13.77;5.20;;;18.40;99.90;;;;;;5090288;28;20218;-57
2023/06/26 03:47:10;;;;;;;18.50;5.30;;;18.40;99.90;;;;;;5086530;28;20600;-56
2023/06/26 03:49:38;;;;;;;13.87;4.80;;;18.40;99.90;;;;;;5088072;28;20218;-57
2023/06/26 03:52:07;;;;;;;12.87;5.20;;;18.40;99.90;;;;;;5091701;28;20223;-57
2023/06/26 03:54:35;;;;;;;16.97;4.87;;;18.30;99.90;;;;;;5096193;28;20230;-57
2023/06/26 03:57:04;;;;;;;13.00;4.90;;;18.30;99.90;;;;;;5088275;28;20195;-57
2023/06/26 03:59:32;;;;;;;14.03;5.10;;;18.30;99.90;;;;;;5086500;28;20218;-57
2023/06/26 04:02:03;;;;;;;16.23;5.57;;;18.20;99.90;;;;;;5088404;28;20211;-57
2023/06/26 04:04:31;;;;;;;15.80;5.37;;;18.20;99.90;;;;;;5091683;28;20255;-57
2023/06/26 04:07:00;;;;;;;16.37;5.77;;;18.10;99.90;;;;;;5085250;28;20685;-57
2023/06/26 04:09:28;;;;;;;14.13;4.97;;;18.10;99.90;;;;;;5090806;28;20645;-57
2023/06/26 04:11:59;;;;;;;14.60;5.47;;;18.10;99.90;;;;;;5085384;28;20213;-57
2023/06/26 04:14:27;;;;;;;14.50;4.97;;;18.10;99.90;;;;;;5086553;28;20689;-56
2023/06/26 04:16:57;;;;;;;11.30;4.17;;;18.00;99.90;;;;;;5071054;28;20222;-57
2023/06/26 04:19:27;;;;;;;9.97;4.67;;;18.00;99.90;;;;;;5090897;28;20219;-57
2023/06/26 04:21:55;;;;;;;13.40;5.07;;;18.00;99.90;;;;;;5087149;28;20553;-57
2023/06/26 04:24:23;;;;;;;13.90;4.70;;;18.00;99.90;;;;;;5087695;28;20203;-57
2023/06/26 04:26:52;;;;;;;14.33;5.00;;;18.00;99.90;;;;;;5091030;28;20188;-57
2023/06/26 04:29:21;;;;;;;18.40;4.40;;;18.00;99.90;;;;;;5075252;28;20222;-57
2023/06/26 04:31:49;;;;;;;13.73;4.43;;;18.00;99.90;;;;;;5092501;28;20226;-56
2023/06/26 04:34:17;;;;;;;14.43;4.40;;;17.90;99.90;;;;;;5090048;28;20215;-57
2023/06/26 04:36:47;;;;;;;14.57;4.40;;;17.90;99.90;;;;;;5094516;28;20215;-57
2023/06/26 04:39:16;;;;;;;13.97;4.60;;;17.90;99.90;;;;;;5085518;28;20244;-56
2023/06/26 04:41:45;;;;;;;11.13;4.00;;;17.90;99.90;;;;;;5090549;28;20191;-56
2023/06/26 04:44:13;;;;;;;16.73;4.87;;;18.00;99.90;;;;;;5092975;28;20226;-57
2023/06/26 04:46:42;;;;;;;13.20;4.13;;;18.00;99.90;;;;;;5092835;28;20223;-57
2023/06/26 04:49:10;;;;;;;13.33;3.93;;;18.00;99.90;;;;;;5094169;28;20219;-57
2023/06/26 04:51:40;;;;;;;10.00;4.10;;;18.00;99.90;;;;;;5093777;28;20273;-58
2023/06/26 04:54:11;;;;;;;15.67;3.70;;;18.00;99.90;;;;;;5093859;28;20225;-57
2023/06/26 04:56:40;;;;;;;13.13;4.20;;;18.00;99.90;;;;;;5089268;28;21428;-57
2023/06/26 04:59:12;;;;;;;11.53;4.00;;;18.00;99.90;;;;;;5089829;28;20604;-56
2023/06/26 05:01:41;;;;;;;13.03;3.70;;;18.10;99.90;;;;;;5093612;28;20210;-57
2023/06/26 05:04:10;;;;;;;10.00;3.70;;;18.00;99.90;;;;;;5091805;28;20239;-57
2023/06/26 05:06:38;;;;;;;14.07;4.10;;;18.00;99.90;;;;;;5093136;28;20227;-56
2023/06/26 05:09:06;;;;;;;13.03;3.93;;;18.00;99.90;;;;;;5095431;28;20188;-57
2023/06/26 05:11:36;;;;;;;8.97;3.80;;;18.00;99.90;;;;;;5093096;28;20215;-57
2023/06/26 05:14:06;;;;;;;13.97;3.50;;;18.10;99.90;;;;;;5091931;28;20215;-57
2023/06/26 05:16:35;;;;;;;7.83;3.40;;;18.10;99.90;;;;;;5087105;28;20621;-58
2023/06/26 05:19:03;;;;;;;7.30;3.07;;;18.10;99.90;;;;;;5090289;28;20217;-57
2023/06/26 05:21:32;;;;;;;13.80;3.33;;;18.10;99.90;;;;;;5092737;28;20188;-57
2023/06/26 05:24:04;;;;;;;11.40;3.37;;;18.20;99.90;;;;;;5075709;28;20663;-56
2023/06/26 05:26:33;;;;;;;13.30;3.20;;;18.10;99.90;;;;;;5095265;28;20215;-56
2023/06/26 05:29:03;;;;;;;9.80;3.20;;;18.10;99.90;;;;;;5093355;28;20215;-56
2023/06/26 05:31:33;;;;;;;6.00;3.03;;;18.20;99.90;;;;;;5088528;28;20228;-57
2023/06/26 05:34:04;;;;;;;8.53;3.40;;;18.20;99.90;;;;;;5092618;28;20226;-57
2023/06/26 05:36:34;;;;;;;7.17;3.03;;;18.20;99.90;;;;;;5079735;28;20230;-58
2023/06/26 05:39:24;;;;;;;4.63;2.57;;;18.30;99.90;;;;;;5092385;28;20575;-56
2023/06/26 05:41:53;;;;;;;9.73;3.23;;;18.30;99.90;;;;;;5071062;28;20223;-57
2023/06/26 05:44:23;;;;;;;8.30;2.93;;;18.40;99.90;;;;;;5092076;28;20215;-57
2023/06/26 05:46:52;;;;;;;6.40;2.50;;;18.40;99.90;;;;;;5089626;28;20306;-57
2023/06/26 05:49:20;;;;;;;11.07;3.17;;;18.50;99.90;;;;;;5093499;28;20240;-56
2023/06/26 05:51:49;;;;;;;11.57;3.37;;;18.50;99.90;;;;;;5092476;28;20218;-57
2023/06/26 05:54:18;;;;;;;12.37;2.90;;;18.50;99.90;;;;;;5093021;28;20223;-57
2023/06/26 05:56:47;;;;;;;9.20;2.97;;;18.50;99.90;;;;;;5088275;28;20197;-57
2023/06/26 05:59:16;;;;;;;7.53;2.40;;;18.60;99.90;;;;;;5091385;28;20207;-57
2023/06/26 06:01:46;;;;;;;5.70;3.10;;;18.60;99.90;;;;;;5091299;28;20230;-56
2023/06/26 06:04:14;;;;;;;10.57;2.77;;;18.70;99.90;;;;;;5088472;28;20215;-55
2023/06/26 06:06:42;;;;;;;8.83;2.97;;;18.80;99.90;;;;;;5090423;28;20219;-56
2023/06/26 06:09:11;;;;;;;5.07;2.23;;;18.80;99.90;;;;;;5092475;28;20230;-57
2023/06/26 06:11:39;;;;;;;5.80;2.33;;;18.90;99.90;;;;;;5086028;28;20223;-57
2023/06/26 06:14:08;;;;;;;11.30;2.60;;;19.00;99.90;;;;;;5090370;28;20246;-57
2023/06/26 06:16:36;;;;;;;4.53;2.17;;;19.00;99.90;;;;;;5073857;28;20238;-55
2023/06/26 06:19:07;;;;;;;7.63;2.30;;;18.90;99.90;;;;;;5092286;28;20222;-57
2023/06/26 06:21:36;;;;;;;7.43;2.70;;;18.90;99.90;;;;;;5082416;28;20223;-56
2023/06/26 06:24:04;;;;;;;7.77;2.50;;;19.00;99.90;;;;;;5085383;28;20196;-56
2023/06/26 06:26:33;;;;;;;5.53;2.60;;;19.10;99.90;;;;;;5091142;28;20220;-57
2023/06/26 06:29:01;;;;;;;7.57;2.40;;;19.10;99.90;;;;;;5092221;28;20211;-56
2023/06/26 06:31:30;;;;;;;5.10;2.10;;;19.10;99.90;;;;;;5092425;28;20238;-56
2023/06/26 06:33:58;;;;;;;4.40;2.17;;;19.20;99.90;;;;;;5092381;28;20223;-55
2023/06/26 06:36:28;;;;;;;5.67;2.43;;;19.10;99.90;;;;;;5087500;28;20685;-57
2023/06/26 06:38:56;;;;;;;9.13;2.93;;;19.20;99.90;;;;;;5071082;28;20187;-57
2023/06/26 06:41:25;;;;;;;4.63;2.30;;;19.30;99.90;;;;;;5082739;28;20246;-57
2023/06/26 06:43:53;;;;;;;10.73;2.80;;;19.30;99.90;;;;;;5090816;28;20220;-56
2023/06/26 06:46:21;;;;;;;4.83;2.10;;;19.40;99.90;;;;;;5091380;28;20238;-56
2023/06/26 06:48:50;;;;;;;6.23;2.63;;;19.40;99.90;;;;;;5092355;28;20246;-57
2023/06/26 06:51:18;;;;;;;3.43;2.23;;;19.40;99.90;;;;;;5087579;28;20648;-57
2023/06/26 06:53:48;;;;;;;7.77;2.20;;;19.40;99.90;;;;;;5091794;28;20669;-57
2023/06/26 06:56:16;;;;;;;6.00;2.40;;;19.50;99.90;;;;;;5087056;28;20311;-57
2023/06/26 06:58:46;;;;;;;9.43;2.60;;;19.60;99.90;;;;;;5089058;28;20566;-55
2023/06/26 07:01:14;;;;;;;6.87;2.23;;;19.60;99.90;;;;;;5087676;28;20733;-56
2023/06/26 07:03:42;;;;;;;4.27;2.40;;;19.60;99.90;;;;;;5084572;28;20306;-57
2023/06/26 07:06:11;;;;;;;10.20;2.40;;;19.70;99.90;;;;;;5091794;28;20186;-57
2023/06/26 07:08:39;;;;;;;4.60;2.20;;;19.70;99.90;;;;;;5092545;28;20222;-56
2023/06/26 07:11:09;;;;;;;5.47;2.50;;;19.70;99.90;;;;;;5085784;28;20601;-56
2023/06/26 07:13:37;;;;;;;5.93;2.23;;;19.80;99.90;;;;;;5090072;28;20219;-57
2023/06/26 07:16:05;;;;;;;2.97;2.10;;;19.80;99.90;;;;;;5091847;28;20651;-57
2023/06/26 07:18:34;;;;;;;4.50;1.97;;;19.90;99.90;;;;;;5092397;28;20257;-56
2023/06/26 07:21:02;;;;;;;4.17;2.30;;;20.00;99.90;;;;;;5092206;28;20198;-57
2023/06/26 07:23:31;;;;;;;6.03;2.20;;;20.10;99.90;;;;;;5090966;28;20219;-56
2023/06/26 07:25:59;;;;;;;5.87;2.27;;;20.10;99.90;;;;;;5090373;28;20230;-57
2023/06/26 07:28:29;;;;;;;5.70;2.27;;;20.20;99.90;;;;;;5070438;28;20272;-58
2023/06/26 07:30:57;;;;;;;4.73;2.23;;;20.30;99.90;;;;;;5090919;28;20253;-57
2023/06/26 07:33:25;;;;;;;4.83;2.10;;;20.40;99.90;;;;;;5092662;28;20207;-58
2023/06/26 07:35:53;;;;;;;2.97;2.27;;;20.40;99.90;;;;;;5091062;28;20204;-58
2023/06/26 07:38:22;;;;;;;3.13;2.47;;;20.50;99.90;;;;;;5085600;28;20226;-58
2023/06/26 07:40:51;;;;;;;6.50;2.60;;;20.60;99.90;;;;;;5091256;28;20222;-58
2023/06/26 07:43:19;;;;;;;7.60;2.30;;;20.60;99.90;;;;;;5089400;28;20231;-58
2023/06/26 07:45:49;;;;;;;6.77;2.30;;;20.60;99.90;;;;;;5081265;28;20219;-58
2023/06/26 07:48:17;;;;;;;4.57;2.50;;;20.60;99.90;;;;;;5087609;28;20191;-58
2023/06/26 07:50:45;;;;;;;10.73;2.73;;;20.70;99.90;;;;;;5081773;28;25812;-59
2023/06/26 07:53:13;;;;;;;3.33;2.20;;;20.70;99.90;;;;;;5084783;28;20227;-58
2023/06/26 07:55:41;;;;;;;6.03;2.20;;;20.70;99.90;;;;;;5086815;28;20223;-58
2023/06/26 07:58:10;;;;;;;4.57;2.43;;;20.60;99.90;;;;;;5084256;28;20227;-58
2023/06/26 08:00:39;;;;;;;7.13;2.20;;;20.70;99.90;;;;;;5085515;28;20270;-59
2023/06/26 08:03:09;;;;;;;5.40;2.53;;;20.70;99.90;;;;;;5087075;28;20682;-59
2023/06/26 08:05:52;;;;;;;2.77;1.83;;;20.80;99.90;;;;;;5066751;28;20211;-58
2023/06/26 08:08:22;;;;;;;3.37;1.90;;;20.80;99.90;;;;;;5088947;28;20219;-58
2023/06/26 08:10:50;;;;;;;4.93;2.17;;;21.00;99.90;;;;;;5083780;28;20244;-58
2023/06/26 08:13:20;;;;;;;3.40;1.90;;;21.00;99.90;;;;;;5089266;28;20211;-59
2023/06/26 08:15:48;;;;;;;3.30;2.03;;;21.10;99.90;;;;;;5089548;28;20693;-59
2023/06/26 08:18:19;;;;;;;5.13;2.10;;;21.10;99.90;;;;;;5086289;28;20194;-58
2023/06/26 08:20:47;;;;;;;3.57;2.00;;;21.20;99.90;;;;;;5093962;28;20191;-58
2023/06/26 08:23:16;;;;;;;4.93;2.30;;;21.30;99.90;;;;;;5092450;28;20268;-58
2023/06/26 08:25:44;;;;;;;3.80;2.07;;;21.40;99.90;;;;;;5090775;28;20226;-58
2023/06/26 08:28:12;;;;;;;3.73;2.23;;;21.50;99.90;;;;;;5090075;28;20219;-59
2023/06/26 08:30:41;;;;;;;2.60;2.40;;;21.60;99.90;;;;;;5085242;28;20245;-59
2023/06/26 08:33:12;;;;;;;7.87;2.73;;;21.70;99.90;;;;;;5094194;28;20630;-58
2023/06/26 08:35:42;;;;;;;3.70;2.13;;;21.70;99.90;;;;;;5089205;28;20215;-58
2023/06/26 08:38:10;;;;;;;2.63;1.70;;;21.70;99.90;;;;;;5090671;28;20223;-59
2023/06/26 08:40:39;;;;;;;4.47;2.57;;;21.70;99.90;;;;;;5091673;28;20219;-60
2023/06/26 08:43:07;;;;;;;3.60;2.27;;;21.80;99.90;;;;;;5086574;28;20231;-58
2023/06/26 08:45:36;;;;;;;3.53;1.90;;;21.90;99.90;;;;;;5092307;28;20314;-59
2023/06/26 08:48:08;;;;;;;3.33;1.73;;;22.00;99.90;;;;;;5095035;28;20191;-59
2023/06/26 08:50:39;;;;;;;3.57;1.70;;;22.10;99.90;;;;;;5094196;28;20226;-59
2023/06/26 08:53:14;;;;;;;2.33;1.67;;;22.20;99.90;;;;;;5072344;28;20222;-58
2023/06/26 08:55:43;;;;;;;2.43;1.80;;;22.30;99.90;;;;;;5091455;28;20225;-58
2023/06/26 08:58:12;;;;;;;2.77;1.43;;;22.20;99.90;;;;;;5093759;28;20221;-58
2023/06/26 09:00:41;;;;;;;3.13;1.63;;;22.20;99.90;;;;;;5092643;28;20705;-59
2023/06/26 09:03:11;;;;;;;3.40;1.50;;;22.30;99.90;;;;;;5088186;28;20284;-58
2023/06/26 09:05:39;;;;;;;2.80;1.70;;;22.20;99.90;;;;;;5090013;28;20226;-58
2023/06/26 09:08:09;;;;;;;2.63;1.60;;;22.00;99.90;;;;;;5091124;28;20227;-58
2023/06/26 09:10:38;;;;;;;2.80;1.53;;;21.80;99.90;;;;;;5088935;28;20211;-58
2023/06/26 09:13:07;;;;;;;4.37;1.70;;;21.70;99.90;;;;;;5091247;28;20208;-58
2023/06/26 09:15:55;;;;;;;4.33;2.00;;;22.00;99.90;;;;;;5089663;28;20228;-58
2023/06/26 09:18:24;;;;;;;1.80;1.70;;;22.10;99.90;;;;;;5092900;28;20187;-58
2023/06/26 09:20:52;;;;;;;4.50;1.67;;;22.30;99.90;;;;;;5088804;28;20187;-57
2023/06/26 09:23:24;;;;;;;2.60;1.73;;;22.50;99.90;;;;;;5089584;28;20230;-58
2023/06/26 09:25:52;;;;;;;3.60;1.80;;;22.60;99.90;;;;;;5086490;28;20222;-58
2023/06/26 09:28:21;;;;;;;2.80;1.60;;;22.80;99.90;;;;;;5092211;28;20261;-59
2023/06/26 09:30:51;;;;;;;3.43;1.70;;;22.90;99.90;;;;;;5092633;28;20232;-58
2023/06/26 09:33:20;;;;;;;2.03;1.70;;;23.10;99.90;;;;;;5074756;28;20195;-59
2023/06/26 09:35:49;;;;;;;4.00;1.90;;;23.10;99.90;;;;;;5091693;28;20209;-58
2023/06/26 09:38:18;;;;;;;1.57;1.47;;;23.20;99.90;;;;;;5092981;28;20212;-60
2023/06/26 09:40:47;;;;;;;2.97;1.70;;;23.30;99.90;;;;;;5092894;28;20223;-58
2023/06/26 09:43:16;;;;;;;3.70;1.53;;;23.40;99.90;;;;;;5091924;28;20304;-58
2023/06/26 09:45:44;;;;;;;3.57;1.70;;;23.70;99.90;;;;;;5089828;28;20225;-58
2023/06/26 09:48:17;;;;;;;5.03;1.93;;;23.70;99.90;;;;;;5086504;28;20555;-59
2023/06/26 09:50:45;;;;;;;8.43;2.17;;;23.70;99.90;;;;;;5084895;28;20200;-59
2023/06/26 09:53:36;;;;;;;6.53;2.03;;;23.70;99.90;;;;;;5089142;28;21005;-59
2023/06/26 09:56:08;;;;;;;2.97;1.67;;;23.50;99.90;;;;;;5090729;28;20225;-58
2023/06/26 09:58:39;;;;;;;3.00;1.70;;;23.40;99.90;;;;;;5087076;28;20664;-59
2023/06/26 10:01:09;;;;;;;3.83;2.20;;;23.50;99.90;;;;;;5091438;28;20709;-58
2023/06/26 10:03:38;;;;;;;16.13;1.90;;;23.60;99.90;;;;;;5088974;28;20238;-59
2023/06/26 10:06:10;;;;;;;2.93;1.57;;;23.50;99.90;;;;;;5090559;28;20206;-58
2023/06/26 10:08:40;;;;;;;2.03;1.63;;;23.60;99.90;;;;;;5090609;28;20627;-58
2023/06/26 10:11:15;;;;;;;2.37;1.73;;;23.70;99.90;;;;;;5088234;28;20211;-59
2023/06/26 10:13:48;;;;;;;1.70;1.60;;;23.90;99.90;;;;;;5085735;28;20303;-59
2023/06/26 10:16:22;;;;;;;1.67;1.57;;;23.90;99.90;;;;;;5089238;28;20225;-58
2023/06/26 10:18:54;;;;;;;1.60;1.50;;;24.00;99.90;;;;;;5085578;28;20220;-59
2023/06/26 10:21:24;;;;;;;1.70;1.50;;;24.00;99.90;;;;;;5085915;28;20204;-59
2023/06/26 10:23:54;;;;;;;3.53;1.57;;;24.40;99.90;;;;;;5075695;28;20196;-58
2023/06/26 10:26:27;;;;;;;1.70;1.60;;;24.60;99.90;;;;;;5085045;28;20302;-58
2023/06/26 10:28:57;;;;;;;3.23;2.00;;;24.70;99.90;;;;;;5086242;28;20214;-59
2023/06/26 10:31:28;;;;;;;2.93;1.60;;;24.60;99.90;;;;;;5089715;28;20224;-59
2023/06/26 10:33:59;;;;;;;3.13;1.80;;;24.50;99.90;;;;;;5087314;28;20272;-59
2023/06/26 10:36:31;;;;;;;1.60;1.50;;;24.20;99.90;;;;;;5089097;28;20203;-58
2023/06/26 10:39:05;;;;;;;3.30;1.73;;;24.20;99.90;;;;;;5087358;28;21073;-59
2023/06/26 10:41:42;;;;;;;5.07;1.80;;;24.20;99.90;;;;;;5087124;28;20226;-59
2023/06/26 10:44:28;;;;;;;1.70;1.57;;;24.20;99.90;;;;;;5088496;28;20226;-59
2023/06/26 10:46:58;;;;;;;5.17;1.80;;;24.50;99.90;;;;;;5087674;28;20664;-59
2023/06/26 10:49:29;;;;;;;2.70;1.40;;;24.60;99.90;;;;;;5091302;28;20702;-59
2023/06/26 10:52:02;;;;;;;1.77;1.50;;;24.70;99.90;;;;;;5087438;28;20220;-59
2023/06/26 10:54:33;;;;;;;2.70;1.70;;;24.80;99.90;;;;;;5085139;28;20219;-59
2023/06/26 10:57:04;;;;;;;1.60;1.50;;;25.10;99.90;;;;;;5091587;28;20206;-59
2023/06/26 10:59:33;;;;;;;3.93;1.60;;;25.10;99.90;;;;;;5091932;28;20225;-59
2023/06/26 11:02:03;;;;;;;2.00;1.77;;;25.00;99.90;;;;;;5087107;28;20215;-59
2023/06/26 11:04:40;;;;;;;3.33;1.90;;;25.00;99.90;;;;;;5091564;28;20211;-58
2023/06/26 11:07:17;;;;;;;3.23;1.60;;;25.00;99.90;;;;;;5089668;28;20218;-58
2023/06/26 11:09:57;;;;;;;3.03;1.63;;;25.00;99.90;;;;;;5087658;28;20217;-59
2023/06/26 11:12:42;;;;;;;3.00;1.87;;;24.70;99.90;;;;;;5087391;28;20292;-59
2023/06/26 11:15:12;;;;;;;4.50;2.10;;;24.40;99.90;;;;;;5089480;28;20296;-57
2023/06/26 11:17:41;;;;;;;3.13;1.90;;;24.10;99.90;;;;;;5077970;28;20252;-59
2023/06/26 11:20:12;;;;;;;3.40;2.03;;;23.60;99.90;;;;;;5080970;28;20254;-58
2023/06/26 11:22:43;;;;;;;2.47;1.67;;;23.40;99.90;;;;;;5086208;28;20308;-59
2023/06/26 11:25:12;;;;;;;4.20;1.80;;;23.60;99.90;;;;;;5087913;28;20221;-58
2023/06/26 11:27:42;;;;;;;3.37;1.90;;;23.80;99.90;;;;;;5084964;28;20221;-59
2023/06/26 11:30:23;;;;;;;2.60;1.97;;;23.70;99.90;;;;;;5070503;28;20208;-59
2023/06/26 11:32:52;;;;;;;2.77;1.63;;;23.90;99.90;;;;;;5090273;28;20220;-59
2023/06/26 11:35:29;;;;;;;3.40;1.70;;;24.20;99.90;;;;;;5088575;28;20315;-59
2023/06/26 11:38:00;;;;;;;2.73;1.70;;;24.50;99.90;;;;;;5081449;28;20210;-59
2023/06/26 11:40:33;;;;;;;3.00;1.90;;;24.60;99.90;;;;;;5090527;28;20307;-58
2023/06/26 11:43:04;;;;;;;2.67;2.00;;;24.50;99.90;;;;;;5092208;28;20710;-59
2023/06/26 11:45:33;;;;;;;2.70;1.97;;;24.20;99.90;;;;;;5087712;28;20230;-59
2023/06/26 11:48:02;;;;;;;3.97;2.20;;;24.20;99.90;;;;;;5091428;28;20302;-59
2023/06/26 11:50:31;;;;;;;4.93;1.87;;;24.40;99.90;;;;;;5091764;28;20334;-59
2023/06/26 11:53:01;;;;;;;3.00;1.90;;;24.40;99.90;;;;;;5088217;28;20308;-58
2023/06/26 11:55:42;;;;;;;3.37;1.87;;;24.30;99.90;;;;;;5090999;28;20219;-59
2023/06/26 11:58:12;;;;;;;5.73;2.10;;;24.20;99.90;;;;;;5092190;28;20279;-59
2023/06/26 12:00:43;;;;;;;2.63;1.70;;;24.00;99.90;;;;;;5089915;28;22078;-58
2023/06/26 12:03:12;;;;;;;4.43;1.97;;;23.90;99.90;;;;;;5094187;28;20186;-59
2023/06/26 12:05:40;;;;;;;3.73;1.90;;;24.00;99.90;;;;;;5090018;28;20216;-58
2023/06/26 12:08:09;;;;;;;2.37;2.00;;;24.20;99.90;;;;;;5073234;28;20300;-58
2023/06/26 12:10:38;;;;;;;5.60;2.10;;;24.20;99.90;;;;;;5092467;28;20220;-58
2023/06/26 12:13:08;;;;;;;4.53;1.90;;;24.10;99.90;;;;;;5095353;28;20220;-58
2023/06/26 12:15:38;;;;;;;1.80;1.70;;;23.90;99.90;;;;;;5088493;28;20225;-59
2023/06/26 12:18:09;;;;;;;5.27;1.80;;;23.70;99.90;;;;;;5086290;28;20205;-58
2023/06/26 12:20:41;;;;;;;2.60;1.90;;;23.80;99.90;;;;;;5094448;28;20334;-58
2023/06/26 12:23:13;;;;;;;3.87;1.90;;;24.20;99.90;;;;;;5095141;28;20222;-58
2023/06/26 12:25:42;;;;;;;5.03;1.60;;;24.40;99.90;;;;;;5075046;28;20217;-59
2023/06/26 12:28:18;;;;;;;3.17;1.60;;;24.60;99.90;;;;;;5091447;28;20222;-58
2023/06/26 12:31:09;;;;;;;4.97;1.60;;;24.70;99.90;;;;;;5094606;28;20226;-58
2023/06/26 12:33:38;;;;;;;5.03;1.40;;;24.80;99.90;;;;;;5076752;28;20235;-59
2023/06/26 12:36:11;;;;;;;4.37;1.73;;;24.60;99.90;;;;;;5095628;28;20230;-58
2023/06/26 12:38:39;;;;;;;2.60;1.60;;;24.40;99.90;;;;;;5090985;28;20246;-58
2023/06/26 12:41:13;;;;;;;5.03;1.80;;;24.10;99.90;;;;;;5093983;28;20221;-59
2023/06/26 12:43:42;;;;;;;2.23;1.70;;;23.90;99.90;;;;;;5094883;28;20225;-59
2023/06/26 12:46:12;;;;;;;2.47;1.70;;;23.90;99.90;;;;;;5085492;28;20230;-58
2023/06/26 12:48:43;;;;;;;4.40;1.70;;;24.20;99.90;;;;;;5094531;28;20224;-59
2023/06/26 12:51:12;;;;;;;3.47;1.70;;;24.30;99.90;;;;;;5092425;28;20479;-57
2023/06/26 12:53:41;;;;;;;1.90;1.80;;;24.70;99.90;;;;;;5083384;28;20234;-57
2023/06/26 12:56:10;;;;;;;3.53;2.00;;;24.90;99.90;;;;;;5094066;28;20649;-58
2023/06/26 12:58:39;;;;;;;5.27;1.80;;;25.00;99.90;;;;;;5069844;28;20224;-58